createdAt,value
2022-10-17T00:01:00.104Z,98353.19
2022-10-17T00:03:27.663Z,98349.50
2022-10-17T00:05:54.949Z,98353.25
2022-10-17T00:08:22.409Z,98364.59
2022-10-17T00:11:02.967Z,98362.44
2022-10-17T00:13:30.746Z,98357.84
2022-10-17T00:15:58.449Z,98351.06
2022-10-17T00:18:25.971Z,98360.06
2022-10-17T00:20:56.053Z,98358.94
2022-10-17T00:23:24.187Z,98357.59
2022-10-17T00:26:06.349Z,98361.00
2022-10-17T00:28:33.914Z,98363.59
2022-10-17T00:31:04.677Z,98364.63
2022-10-17T00:33:33.009Z,98348.56
2022-10-17T00:36:08.639Z,98352.44
2022-10-17T00:38:37.100Z,98355.09
2022-10-17T00:41:05.345Z,98361.13
2022-10-17T00:43:59.740Z,98364.50
2022-10-17T00:46:39.008Z,98367.53
2022-10-17T00:49:12.690Z,98370.13
2022-10-17T00:51:57.574Z,98372.63
2022-10-17T00:54:30.679Z,98369.66
2022-10-17T00:56:58.063Z,98364.28
2022-10-17T00:59:29.651Z,98370.31
2022-10-17T01:02:10.873Z,98374.91
2022-10-17T01:04:42.593Z,98375.97
2022-10-17T01:07:10.321Z,98376.00
2022-10-17T01:09:38.873Z,98375.91
2022-10-17T01:12:30.933Z,98378.16
2022-10-17T01:15:19.428Z,98371.97
2022-10-17T01:18:02.383Z,98370.19
2022-10-17T01:20:51.002Z,98366.22
2022-10-17T01:24:04.189Z,98367.75
2022-10-17T01:27:31.346Z,98368.97
2022-10-17T01:30:14.056Z,98368.59
2022-10-17T01:33:03.027Z,98366.97
2022-10-17T01:35:56.421Z,98365.56
2022-10-17T01:38:46.069Z,98361.72
2022-10-17T01:41:36.083Z,98363.09
2022-10-17T01:44:42.650Z,98369.44
2022-10-17T01:47:19.792Z,98368.28
2022-10-17T01:49:50.835Z,98358.91
2022-10-17T01:52:38.729Z,98362.25
2022-10-17T01:55:22.362Z,98350.03
2022-10-17T01:57:59.381Z,98341.91
2022-10-17T02:00:30.089Z,98351.97
2022-10-17T02:03:02.100Z,98347.69
2022-10-17T02:05:35.917Z,98358.69
2022-10-17T02:08:04.632Z,98358.63
2022-10-17T02:11:03.560Z,98355.94
2022-10-17T02:17:04.959Z,98348.53
2022-10-17T02:20:09.753Z,98356.97
2022-10-17T02:23:15.542Z,98356.53
2022-10-17T02:25:57.158Z,98359.19
2022-10-17T02:28:46.119Z,98370.94
2022-10-17T02:32:19.229Z,98360.28
2022-10-17T02:34:52.894Z,98357.78
2022-10-17T02:37:27.362Z,98363.28
2022-10-17T02:39:58.872Z,98369.75
2022-10-17T02:42:28.227Z,98373.56
2022-10-17T02:45:01.955Z,98377.38
2022-10-17T02:47:59.340Z,98381.91
2022-10-17T02:51:08.297Z,98381.31
2022-10-17T02:54:11.116Z,98385.84
2022-10-17T02:56:55.212Z,98393.97
2022-10-17T02:59:25.293Z,98399.56
2022-10-17T03:01:52.864Z,98400.22
2022-10-17T03:04:20.835Z,98400.59
2022-10-17T03:06:49.770Z,98397.22
2022-10-17T03:09:18.711Z,98398.38
2022-10-17T03:11:45.848Z,98398.81
2022-10-17T03:14:13.352Z,98402.63
2022-10-17T03:16:41.278Z,98408.34
2022-10-17T03:19:08.870Z,98404.97
2022-10-17T03:21:38.125Z,98400.84
2022-10-17T03:24:07.273Z,98411.84
2022-10-17T03:26:34.854Z,98402.88
2022-10-17T03:29:03.065Z,98406.09
2022-10-17T03:31:30.986Z,98413.16
2022-10-17T03:33:59.050Z,98418.19
2022-10-17T03:36:26.248Z,98420.59
2022-10-17T03:38:55.157Z,98421.72
2022-10-17T03:41:23.347Z,98426.38
2022-10-17T03:43:54.322Z,98426.19
2022-10-17T03:46:22.122Z,98430.28
2022-10-17T03:48:49.668Z,98430.06
2022-10-17T03:51:17.079Z,98435.06
2022-10-17T03:53:50.004Z,98434.53
2022-10-17T03:56:23.287Z,98436.78
2022-10-17T03:59:01.324Z,98428.16
2022-10-17T04:01:30.452Z,98430.13
2022-10-17T04:03:58.107Z,98438.53
2022-10-17T04:06:29.267Z,98443.53
2022-10-17T04:08:56.913Z,98447.97
2022-10-17T04:12:02.781Z,98443.66
2022-10-17T04:14:30.891Z,98445.69
2022-10-17T04:16:58.571Z,98444.94
2022-10-17T04:19:26.573Z,98446.22
2022-10-17T04:21:54.875Z,98446.28
2022-10-17T04:24:22.812Z,98439.19
2022-10-17T04:27:05.369Z,98444.47
2022-10-17T04:29:36.430Z,98440.84
2022-10-17T04:32:15.732Z,98447.94
2022-10-17T04:34:50.217Z,98450.88
2022-10-17T04:37:20.560Z,98453.66
2022-10-17T04:39:50.145Z,98450.44
2022-10-17T04:42:17.507Z,98450.72
2022-10-17T04:44:44.758Z,98456.38
2022-10-17T04:47:15.304Z,98450.09
2022-10-17T04:49:43.161Z,98459.38
2022-10-17T04:52:11.665Z,98450.97
2022-10-17T04:54:46.636Z,98449.28
2022-10-17T04:57:15.012Z,98457.38
2022-10-17T04:59:48.821Z,98458.91
2022-10-17T05:02:25.710Z,98459.16
2022-10-17T05:04:53.113Z,98463.25
2022-10-17T05:07:21.408Z,98471.41
2022-10-17T05:09:59.179Z,98470.88
2022-10-17T05:12:27.158Z,98471.31
2022-10-17T05:14:54.956Z,98471.88
2022-10-17T05:17:25.148Z,98472.34
2022-10-17T05:19:52.465Z,98466.63
2022-10-17T05:22:20.075Z,98468.25
2022-10-17T05:24:47.805Z,98465.53
2022-10-17T05:27:15.095Z,98460.59
2022-10-17T05:29:42.358Z,98459.94
2022-10-17T05:32:25.172Z,98462.00
2022-10-17T05:34:52.404Z,98463.69
2022-10-17T05:37:21.056Z,98466.78
2022-10-17T05:39:51.788Z,98471.66
2022-10-17T05:42:20.108Z,98475.34
2022-10-17T05:44:48.032Z,98480.66
2022-10-17T05:47:17.886Z,98486.34
2022-10-17T05:49:51.237Z,98487.47
2022-10-17T05:52:23.593Z,98487.75
2022-10-17T05:55:02.513Z,98495.28
2022-10-17T05:57:29.826Z,98502.09
2022-10-17T06:00:01.015Z,98498.53
2022-10-17T06:02:29.786Z,98499.91
2022-10-17T06:04:57.325Z,98507.28
2022-10-17T06:07:24.875Z,98517.00
2022-10-17T06:09:53.209Z,98521.22
2022-10-17T06:12:20.502Z,98528.44
2022-10-17T06:14:47.787Z,98525.69
2022-10-17T06:17:16.641Z,98526.47
2022-10-17T06:19:45.281Z,98530.41
2022-10-17T06:22:15.058Z,98538.03
2022-10-17T06:24:42.908Z,98529.78
2022-10-17T06:27:11.945Z,98539.13
2022-10-17T06:29:41.095Z,98546.66
2022-10-17T06:32:11.244Z,98550.28
2022-10-17T06:34:42.489Z,98546.03
2022-10-17T06:37:10.593Z,98541.81
2022-10-17T06:39:40.509Z,98554.78
2022-10-17T06:42:17.380Z,98545.34
2022-10-17T06:44:48.033Z,98553.72
2022-10-17T06:47:41.724Z,98554.50
2022-10-17T06:50:32.300Z,98556.53
2022-10-17T06:53:10.522Z,98555.13
2022-10-17T06:56:01.300Z,98553.94
2022-10-17T06:58:52.969Z,98551.19
2022-10-17T07:01:32.759Z,98544.66
2022-10-17T07:04:01.352Z,98552.56
2022-10-17T07:06:30.269Z,98556.13
2022-10-17T07:09:02.848Z,98561.59
2022-10-17T07:11:30.307Z,98571.34
2022-10-17T07:13:57.683Z,98572.03
2022-10-17T07:16:24.940Z,98574.09
2022-10-17T07:19:00.802Z,98581.13
2022-10-17T07:21:36.569Z,98590.13
2022-10-17T07:24:07.590Z,98592.28
2022-10-17T07:26:35.191Z,98586.94
2022-10-17T07:29:02.636Z,98590.44
2022-10-17T07:31:37.716Z,98590.75
2022-10-17T07:34:05.252Z,98606.47
2022-10-17T07:36:32.568Z,98603.41
2022-10-17T07:39:02.430Z,98603.81
2022-10-17T07:41:31.072Z,98609.25
2022-10-17T07:43:58.315Z,98609.81
2022-10-17T07:46:31.875Z,98607.53
2022-10-17T07:48:59.854Z,98602.72
2022-10-17T07:51:28.085Z,98595.25
2022-10-17T07:53:55.368Z,98598.13
2022-10-17T07:56:24.812Z,98603.75
2022-10-17T07:58:53.689Z,98606.69
2022-10-17T08:01:20.992Z,98608.56
2022-10-17T08:03:51.446Z,98608.47
2022-10-17T08:06:19.131Z,98602.69
2022-10-17T08:08:46.355Z,98595.75
2022-10-17T08:11:15.090Z,98598.88
2022-10-17T08:13:42.732Z,98607.06
2022-10-17T08:16:13.376Z,98596.28
2022-10-17T08:18:43.494Z,98600.97
2022-10-17T08:21:13.445Z,98603.88
2022-10-17T08:23:40.856Z,98597.91
2022-10-17T08:26:13.242Z,98600.94
2022-10-17T08:28:41.352Z,98599.47
2022-10-17T08:31:21.021Z,98605.16
2022-10-17T08:33:49.440Z,98610.34
2022-10-17T08:36:19.847Z,98607.41
2022-10-17T08:38:51.797Z,98614.78
2022-10-17T08:41:26.017Z,98603.38
2022-10-17T08:44:22.450Z,98607.09
2022-10-17T08:46:57.128Z,98611.78
2022-10-17T08:50:11.111Z,98612.66
2022-10-17T08:53:12.007Z,98602.41
2022-10-17T08:55:47.565Z,98609.47
2022-10-17T08:58:26.183Z,98598.75
2022-10-17T09:01:24.150Z,98602.22
2022-10-17T09:04:23.371Z,98613.31
2022-10-17T09:07:23.679Z,98610.88
2022-10-17T09:10:38.289Z,98608.34
2022-10-17T09:13:28.561Z,98605.97
2022-10-17T09:16:08.162Z,98606.94
2022-10-17T09:18:43.109Z,98604.44
2022-10-17T09:22:02.839Z,98604.53
2022-10-17T09:24:49.892Z,98613.19
2022-10-17T09:28:04.718Z,98614.78
2022-10-17T09:30:54.198Z,98608.19
2022-10-17T09:33:42.296Z,98611.59
2022-10-17T09:36:24.394Z,98607.81
2022-10-17T09:38:59.872Z,98601.88
2022-10-17T09:41:45.283Z,98606.97
2022-10-17T09:44:22.895Z,98609.00
2022-10-17T09:47:52.810Z,98615.22
2022-10-17T09:50:34.888Z,98609.88
2022-10-17T09:53:20.924Z,98609.84
2022-10-17T09:55:57.987Z,98607.41
2022-10-17T09:58:44.893Z,98600.63
2022-10-17T10:01:22.725Z,98612.31
2022-10-17T10:04:13.888Z,98620.31
2022-10-17T10:07:01.160Z,98616.03
2022-10-17T10:09:33.342Z,98614.56
2022-10-17T10:12:17.161Z,98622.66
2022-10-17T10:14:47.223Z,98622.25
2022-10-17T10:17:29.123Z,98612.78
2022-10-17T10:19:56.732Z,98612.75
2022-10-17T10:22:23.940Z,98606.06
2022-10-17T10:25:26.676Z,98604.72
2022-10-17T10:27:54.937Z,98610.97
2022-10-17T10:30:30.318Z,98607.94
2022-10-17T10:33:00.548Z,98612.16
2022-10-17T10:35:36.601Z,98615.69
2022-10-17T10:38:14.624Z,98610.69
2022-10-17T10:41:03.316Z,98606.66
2022-10-17T10:43:51.818Z,98616.38
2022-10-17T10:46:27.426Z,98609.81
2022-10-17T10:48:59.739Z,98612.34
2022-10-17T10:51:36.376Z,98604.19
2022-10-17T10:54:13.735Z,98606.47
2022-10-17T10:57:04.556Z,98603.56
2022-10-17T10:59:43.880Z,98608.25
2022-10-17T11:02:38.497Z,98610.63
2022-10-17T11:05:41.221Z,98613.31
2022-10-17T11:08:42.739Z,98612.25
2022-10-17T11:11:40.679Z,98608.34
2022-10-17T11:14:30.825Z,98603.81
2022-10-17T11:17:50.053Z,98597.22
2022-10-17T11:21:02.652Z,98603.69
2022-10-17T11:23:47.096Z,98602.94
2022-10-17T11:26:27.040Z,98597.81
2022-10-17T11:29:00.469Z,98599.84
2022-10-17T11:31:34.966Z,98587.50
2022-10-17T11:34:25.790Z,98578.16
2022-10-17T11:36:59.994Z,98576.06
2022-10-17T11:40:03.245Z,98575.00
2022-10-17T11:43:02.524Z,98568.81
2022-10-17T11:45:40.135Z,98567.63
2022-10-17T11:48:25.307Z,98575.91
2022-10-17T11:54:24.346Z,98570.00
2022-10-17T11:57:45.132Z,98566.56
2022-10-17T12:00:25.893Z,98567.81
2022-10-17T12:03:48.889Z,98563.63
2022-10-17T12:07:09.377Z,98564.88
2022-10-17T12:10:41.092Z,98558.63
2022-10-17T12:13:33.306Z,98553.94
2022-10-17T12:16:22.198Z,98550.78
2022-10-17T12:19:03.179Z,98554.97
2022-10-17T12:22:22.592Z,98536.50
2022-10-17T12:25:04.460Z,98541.59
2022-10-17T12:27:46.100Z,98543.66
2022-10-17T12:30:13.624Z,98543.00
2022-10-17T12:33:07.161Z,98536.88
2022-10-17T12:35:38.753Z,98545.59
2022-10-17T12:38:18.187Z,98544.06
2022-10-17T12:40:49.003Z,98541.59
2022-10-17T12:43:16.338Z,98542.00
2022-10-17T12:45:54.816Z,98540.13
2022-10-17T12:48:34.019Z,98542.13
2022-10-17T12:51:37.415Z,98542.03
2022-10-17T12:54:16.399Z,98530.22
2022-10-17T12:56:49.552Z,98525.72
2022-10-17T12:59:25.827Z,98530.25
2022-10-17T13:02:03.625Z,98534.41
2022-10-17T13:04:31.969Z,98534.09
2022-10-17T13:07:01.354Z,98533.81
2022-10-17T13:09:42.934Z,98534.78
2022-10-17T13:12:18.487Z,98545.69
2022-10-17T13:14:47.266Z,98537.53
2022-10-17T13:17:30.824Z,98546.97
2022-10-17T13:19:59.019Z,98538.25
2022-10-17T13:22:32.844Z,98535.31
2022-10-17T13:25:19.121Z,98535.00
2022-10-17T13:27:48.442Z,98532.25
2022-10-17T13:30:47.893Z,98536.19
2022-10-17T13:33:38.061Z,98532.25
2022-10-17T13:36:13.718Z,98527.38
2022-10-17T13:38:42.786Z,98538.66
2022-10-17T13:41:34.682Z,98525.28
2022-10-17T13:44:10.308Z,98524.78
2022-10-17T13:46:40.339Z,98530.28
2022-10-17T13:49:34.127Z,98536.69
2022-10-17T13:52:04.486Z,98529.84
2022-10-17T13:54:34.769Z,98527.94
2022-10-17T13:57:04.698Z,98538.84
2022-10-17T13:59:40.357Z,98529.25
2022-10-17T14:02:20.446Z,98536.66
2022-10-17T14:05:15.683Z,98529.19
2022-10-17T14:08:13.347Z,98533.50
2022-10-17T14:10:44.563Z,98534.34
2022-10-17T14:13:36.052Z,98522.00
2022-10-17T14:16:05.365Z,98530.88
2022-10-17T14:18:36.931Z,98526.44
2022-10-17T14:24:26.593Z,98527.09
2022-10-17T14:26:59.506Z,98524.19
2022-10-17T14:29:31.333Z,98528.94
2022-10-17T14:32:08.536Z,98528.59
2022-10-17T14:34:40.686Z,98526.81
2022-10-17T14:37:46.572Z,98522.78
2022-10-17T14:40:33.993Z,98522.06
2022-10-17T14:43:06.106Z,98530.97
2022-10-17T14:45:38.150Z,98528.84
2022-10-17T14:48:18.477Z,98529.41
2022-10-17T14:51:22.651Z,98534.25
2022-10-17T14:54:27.112Z,98531.19
2022-10-17T14:56:55.817Z,98523.81
2022-10-17T14:59:52.082Z,98525.66
2022-10-17T15:02:13.194Z,98517.31
2022-10-17T15:04:40.684Z,98523.31
2022-10-17T15:07:10.585Z,98522.06
2022-10-17T15:09:37.803Z,98521.75
2022-10-17T15:12:13.106Z,98523.84
2022-10-17T15:14:40.396Z,98527.28
2022-10-17T15:17:22.400Z,98523.88
2022-10-17T15:19:50.840Z,98527.31
2022-10-17T15:22:18.695Z,98516.91
2022-10-17T15:24:46.640Z,98521.31
2022-10-17T15:27:24.368Z,98525.31
2022-10-17T15:29:53.057Z,98521.75
2022-10-17T15:32:20.463Z,98521.28
2022-10-17T15:34:47.872Z,98518.97
2022-10-17T15:37:24.581Z,98523.38
2022-10-17T15:39:55.198Z,98524.44
2022-10-17T15:42:28.649Z,98520.97
2022-10-17T15:44:57.430Z,98521.00
2022-10-17T15:47:33.788Z,98520.09
2022-10-17T15:50:02.404Z,98525.34
2022-10-17T15:52:29.859Z,98528.41
2022-10-17T15:54:59.538Z,98519.13
2022-10-17T15:57:34.997Z,98524.00
2022-10-17T16:00:02.409Z,98525.31
2022-10-17T16:02:36.649Z,98527.81
2022-10-17T16:05:23.571Z,98525.19
2022-10-17T16:07:51.606Z,98528.41
2022-10-17T16:10:20.364Z,98528.75
2022-10-17T16:12:49.875Z,98530.38
2022-10-17T16:15:28.128Z,98527.00
2022-10-17T16:17:57.416Z,98526.50
2022-10-17T16:20:25.670Z,98522.03
2022-10-17T16:22:59.950Z,98519.91
2022-10-17T16:25:30.342Z,98523.34
2022-10-17T16:28:00.352Z,98522.41
2022-10-17T16:30:30.666Z,98533.91
2022-10-17T16:32:57.936Z,98529.91
2022-10-17T16:35:33.410Z,98533.38
2022-10-17T16:38:06.046Z,98529.66
2022-10-17T16:40:34.229Z,98532.59
2022-10-17T16:43:01.842Z,98524.84
2022-10-17T16:45:29.289Z,98528.59
2022-10-17T16:47:56.731Z,98524.38
2022-10-17T16:50:24.587Z,98523.84
2022-10-17T16:52:51.884Z,98524.13
2022-10-17T16:55:22.378Z,98528.66
2022-10-17T16:57:49.744Z,98528.13
2022-10-17T17:00:18.070Z,98529.72
2022-10-17T17:02:48.274Z,98523.88
2022-10-17T17:05:15.963Z,98517.78
2022-10-17T17:07:43.325Z,98528.41
2022-10-17T17:10:10.779Z,98527.59
2022-10-17T17:12:38.527Z,98525.47
2022-10-17T17:15:06.185Z,98526.81
2022-10-17T17:17:48.712Z,98521.47
2022-10-17T17:20:17.708Z,98525.44
2022-10-17T17:22:45.076Z,98525.22
2022-10-17T17:25:12.434Z,98522.81
2022-10-17T17:27:39.950Z,98526.28
2022-10-17T17:30:07.985Z,98528.13
2022-10-17T17:32:35.401Z,98526.56
2022-10-17T17:35:02.903Z,98527.91
2022-10-17T17:37:30.644Z,98519.91
2022-10-17T17:39:58.188Z,98529.22
2022-10-17T17:42:25.556Z,98518.03
2022-10-17T17:44:52.878Z,98527.34
2022-10-17T17:47:20.212Z,98526.28
2022-10-17T17:49:47.803Z,98518.31
2022-10-17T17:52:15.125Z,98527.59
2022-10-17T17:54:42.429Z,98531.88
2022-10-17T17:57:10.064Z,98533.22
2022-10-17T17:59:39.649Z,98531.34
2022-10-17T18:02:09.046Z,98526.78
2022-10-17T18:04:36.687Z,98527.34
2022-10-17T18:07:04.024Z,98528.94
2022-10-17T18:09:31.341Z,98514.88
2022-10-17T18:11:58.742Z,98518.06
2022-10-17T18:14:26.285Z,98522.56
2022-10-17T18:16:53.806Z,98522.81
2022-10-17T18:19:22.365Z,98518.56
2022-10-17T18:21:49.778Z,98514.56
2022-10-17T18:24:17.204Z,98511.66
2022-10-17T18:26:44.603Z,98512.97
2022-10-17T18:29:12.876Z,98506.88
2022-10-17T18:31:40.465Z,98509.53
2022-10-17T18:34:07.841Z,98516.97
2022-10-17T18:36:35.711Z,98507.41
2022-10-17T18:39:04.215Z,98513.00
2022-10-17T18:41:33.186Z,98517.78
2022-10-17T18:44:00.957Z,98511.66
2022-10-17T18:46:35.631Z,98503.13
2022-10-17T18:49:03.737Z,98520.44
2022-10-17T18:51:31.098Z,98517.22
2022-10-17T18:53:59.017Z,98516.97
2022-10-17T18:56:27.063Z,98511.66
2022-10-17T18:58:54.757Z,98509.78
2022-10-17T19:01:27.434Z,98515.09
2022-10-17T19:03:57.969Z,98509.78
2022-10-17T19:06:32.117Z,98516.44
2022-10-17T19:09:07.041Z,98520.19
2022-10-17T19:11:36.490Z,98511.13
2022-10-17T19:14:12.857Z,98510.88
2022-10-17T19:16:46.205Z,98517.50
2022-10-17T19:19:25.050Z,98510.84
2022-10-17T19:21:53.366Z,98508.19
2022-10-17T19:24:27.266Z,98508.13
2022-10-17T19:26:58.412Z,98514.25
2022-10-17T19:29:31.915Z,98503.38
2022-10-17T19:32:00.668Z,98502.03
2022-10-17T19:34:28.439Z,98507.84
2022-10-17T19:36:56.170Z,98503.28
2022-10-17T19:39:25.364Z,98508.84
2022-10-17T19:41:53.012Z,98510.94
2022-10-17T19:44:20.477Z,98512.03
2022-10-17T19:46:49.507Z,98510.75
2022-10-17T19:49:18.015Z,98511.09
2022-10-17T19:51:45.297Z,98505.47
2022-10-17T19:54:13.222Z,98508.66
2022-10-17T19:56:43.563Z,98504.69
2022-10-17T19:59:14.756Z,98506.53
2022-10-17T20:01:42.862Z,98499.38
2022-10-17T20:04:12.440Z,98505.19
2022-10-17T20:06:40.984Z,98509.19
2022-10-17T20:09:12.355Z,98506.03
2022-10-17T20:11:43.468Z,98515.34
2022-10-17T20:14:10.672Z,98501.53
2022-10-17T20:16:38.120Z,98507.41
2022-10-17T20:19:11.772Z,98505.00
2022-10-17T20:21:40.053Z,98500.47
2022-10-17T20:24:13.096Z,98504.44
2022-10-17T20:26:40.759Z,98500.75
2022-10-17T20:29:20.619Z,98492.19
2022-10-17T20:31:48.926Z,98492.50
2022-10-17T20:34:18.533Z,98505.28
2022-10-17T20:36:47.127Z,98503.41
2022-10-17T20:39:16.589Z,98505.56
2022-10-17T20:41:45.018Z,98502.09
2022-10-17T20:44:12.947Z,98502.09
2022-10-17T20:46:45.221Z,98499.44
2022-10-17T20:49:21.983Z,98497.03
2022-10-17T20:51:49.348Z,98496.22
2022-10-17T20:54:16.713Z,98498.88
2022-10-17T20:56:44.111Z,98500.50
2022-10-17T20:59:16.173Z,98499.94
2022-10-17T21:01:45.179Z,98508.19
2022-10-17T21:04:44.794Z,98498.91
2022-10-17T21:07:00.990Z,98507.41
2022-10-17T21:09:29.277Z,98503.69
2022-10-17T21:11:57.159Z,98499.13
2022-10-17T21:14:25.240Z,98498.06
2022-10-17T21:16:52.686Z,98494.88
2022-10-17T21:19:21.852Z,98496.72
2022-10-17T21:21:49.545Z,98497.81
2022-10-17T21:24:19.324Z,98500.22
2022-10-17T21:26:50.311Z,98502.59
2022-10-17T21:29:17.634Z,98506.09
2022-10-17T21:31:45.372Z,98499.41
2022-10-17T21:34:20.104Z,98496.75
2022-10-17T21:36:48.404Z,98492.50
2022-10-17T21:39:16.689Z,98495.41
2022-10-17T21:41:45.191Z,98494.06
2022-10-17T21:44:19.842Z,98487.66
2022-10-17T21:46:47.963Z,98496.84
2022-10-17T21:49:18.756Z,98486.59
2022-10-17T21:51:47.676Z,98482.88
2022-10-17T21:54:16.533Z,98478.94
2022-10-17T21:56:44.352Z,98473.88
2022-10-17T21:59:11.868Z,98477.06
2022-10-17T22:01:42.238Z,98474.69
2022-10-17T22:04:17.117Z,98478.69
2022-10-17T22:06:47.042Z,98472.53
2022-10-17T22:09:26.494Z,98474.41
2022-10-17T22:11:56.888Z,98467.50
2022-10-17T22:14:26.775Z,98464.06
2022-10-17T22:16:55.005Z,98464.81
2022-10-17T22:19:26.990Z,98457.09
2022-10-17T22:21:54.851Z,98460.25
2022-10-17T22:24:23.210Z,98452.75
2022-10-17T22:26:51.156Z,98451.97
2022-10-17T22:29:18.631Z,98458.78
2022-10-17T22:31:46.142Z,98457.44
2022-10-17T22:34:15.675Z,98454.31
2022-10-17T22:36:43.205Z,98457.16
2022-10-17T22:39:11.200Z,98456.81
2022-10-17T22:41:38.482Z,98444.28
2022-10-17T22:44:06.521Z,98457.41
2022-10-17T22:46:34.454Z,98459.53
2022-10-17T22:49:01.688Z,98450.72
2022-10-17T22:51:28.953Z,98454.25
2022-10-17T22:53:56.707Z,98449.00
2022-10-17T22:56:24.086Z,98455.56
2022-10-17T22:58:52.080Z,98448.31
2022-10-17T23:01:23.698Z,98445.38
2022-10-17T23:03:52.527Z,98442.41
2022-10-17T23:06:20.885Z,98435.13
2022-10-17T23:08:48.558Z,98437.22
2022-10-17T23:11:16.787Z,98431.56
2022-10-17T23:13:44.514Z,98433.38
2022-10-17T23:16:11.846Z,98433.97
2022-10-17T23:18:39.514Z,98437.53
2022-10-17T23:21:08.023Z,98427.97
2022-10-17T23:23:35.374Z,98429.31
2022-10-17T23:26:08.975Z,98433.47
2022-10-17T23:28:36.798Z,98424.34
2022-10-17T23:31:20.349Z,98415.41
2022-10-17T23:33:50.205Z,98421.53
2022-10-17T23:36:19.985Z,98419.38
2022-10-17T23:38:48.659Z,98412.78
2022-10-17T23:41:17.182Z,98411.94
2022-10-17T23:43:44.936Z,98404.06
2022-10-17T23:46:12.656Z,98410.66
2022-10-17T23:48:41.632Z,98408.97
2022-10-17T23:51:11.023Z,98415.59
2022-10-17T23:53:39.703Z,98408.88
2022-10-17T23:56:08.466Z,98408.34
2022-10-17T23:58:36.742Z,98404.28
